sensor_id;sensor_type;location;lat;lon;timestamp;P1;durP1;ratioP1;P2;durP2;ratioP2
22388;SDS011;11362;48.102;11.620;2024-02-04T00:01:32;2.40;;;1.50;;
22388;SDS011;11362;48.102;11.620;2024-02-04T00:03:57;3.37;;;2.03;;
22388;SDS011;11362;48.102;11.620;2024-02-04T00:06:22;4.70;;;1.70;;
22388;SDS011;11362;48.102;11.620;2024-02-04T00:08:48;6.50;;;2.20;;
22388;SDS011;11362;48.102;11.620;2024-02-04T00:11:13;3.97;;;2.03;;
22388;SDS011;11362;48.102;11.620;2024-02-04T00:13:38;4.67;;;1.87;;
22388;SDS011;11362;48.102;11.620;2024-02-04T00:16:04;11.33;;;2.23;;
22388;SDS011;11362;48.102;11.620;2024-02-04T00:18:29;2.53;;;1.83;;
22388;SDS011;11362;48.102;11.620;2024-02-04T00:20:55;4.33;;;1.80;;
22388;SDS011;11362;48.102;11.620;2024-02-04T00:23:20;2.13;;;1.63;;
22388;SDS011;11362;48.102;11.620;2024-02-04T00:25:45;2.97;;;1.80;;
22388;SDS011;11362;48.102;11.620;2024-02-04T00:28:11;3.97;;;1.53;;
22388;SDS011;11362;48.102;11.620;2024-02-04T00:30:36;1.97;;;1.70;;
22388;SDS011;11362;48.102;11.620;2024-02-04T00:33:02;3.23;;;1.97;;
22388;SDS011;11362;48.102;11.620;2024-02-04T00:35:27;1.33;;;1.30;;
22388;SDS011;11362;48.102;11.620;2024-02-04T00:37:52;2.97;;;1.70;;
22388;SDS011;11362;48.102;11.620;2024-02-04T00:40:18;2.03;;;1.93;;
22388;SDS011;11362;48.102;11.620;2024-02-04T00:42:43;2.80;;;1.87;;
22388;SDS011;11362;48.102;11.620;2024-02-04T00:45:08;2.67;;;1.30;;
22388;SDS011;11362;48.102;11.620;2024-02-04T00:47:34;2.50;;;1.60;;
22388;SDS011;11362;48.102;11.620;2024-02-04T00:49:59;3.80;;;1.67;;
22388;SDS011;11362;48.102;11.620;2024-02-04T00:52:24;3.17;;;1.30;;
22388;SDS011;11362;48.102;11.620;2024-02-04T00:54:50;5.40;;;1.80;;
22388;SDS011;11362;48.102;11.620;2024-02-04T00:57:15;2.00;;;1.70;;
22388;SDS011;11362;48.102;11.620;2024-02-04T00:59:40;2.27;;;1.73;;
22388;SDS011;11362;48.102;11.620;2024-02-04T01:02:06;1.83;;;1.20;;
22388;SDS011;11362;48.102;11.620;2024-02-04T01:04:31;4.00;;;1.70;;
22388;SDS011;11362;48.102;11.620;2024-02-04T01:06:56;2.53;;;1.50;;
22388;SDS011;11362;48.102;11.620;2024-02-04T01:09:22;3.00;;;1.33;;
22388;SDS011;11362;48.102;11.620;2024-02-04T01:11:47;2.67;;;1.33;;
22388;SDS011;11362;48.102;11.620;2024-02-04T01:14:12;1.37;;;1.20;;
22388;SDS011;11362;48.102;11.620;2024-02-04T01:16:37;6.10;;;1.73;;
22388;SDS011;11362;48.102;11.620;2024-02-04T01:19:03;2.10;;;1.50;;
22388;SDS011;11362;48.102;11.620;2024-02-04T01:21:28;1.73;;;1.10;;
22388;SDS011;11362;48.102;11.620;2024-02-04T01:23:53;1.30;;;1.17;;
22388;SDS011;11362;48.102;11.620;2024-02-04T01:26:18;3.33;;;1.57;;
22388;SDS011;11362;48.102;11.620;2024-02-04T01:28:44;1.47;;;1.37;;
22388;SDS011;11362;48.102;11.620;2024-02-04T01:31:09;1.20;;;1.10;;
22388;SDS011;11362;48.102;11.620;2024-02-04T01:33:34;1.50;;;1.40;;
22388;SDS011;11362;48.102;11.620;2024-02-04T01:36:00;2.70;;;1.53;;
22388;SDS011;11362;48.102;11.620;2024-02-04T01:38:25;1.47;;;1.37;;
22388;SDS011;11362;48.102;11.620;2024-02-04T01:40:50;1.30;;;1.20;;
22388;SDS011;11362;48.102;11.620;2024-02-04T01:43:16;2.40;;;1.33;;
22388;SDS011;11362;48.102;11.620;2024-02-04T01:45:41;1.53;;;1.40;;
22388;SDS011;11362;48.102;11.620;2024-02-04T01:48:06;2.13;;;1.43;;
22388;SDS011;11362;48.102;11.620;2024-02-04T01:50:32;2.40;;;1.10;;
22388;SDS011;11362;48.102;11.620;2024-02-04T01:52:57;1.27;;;1.13;;
22388;SDS011;11362;48.102;11.620;2024-02-04T01:55:22;1.30;;;1.20;;
22388;SDS011;11362;48.102;11.620;2024-02-04T01:57:48;1.37;;;1.33;;
22388;SDS011;11362;48.102;11.620;2024-02-04T02:00:14;2.70;;;1.50;;
22388;SDS011;11362;48.102;11.620;2024-02-04T02:02:40;2.40;;;1.33;;
22388;SDS011;11362;48.102;11.620;2024-02-04T02:05:06;1.60;;;1.50;;
22388;SDS011;11362;48.102;11.620;2024-02-04T02:07:32;3.63;;;1.60;;
22388;SDS011;11362;48.102;11.620;2024-02-04T02:09:57;1.67;;;1.30;;
22388;SDS011;11362;48.102;11.620;2024-02-04T02:12:23;3.33;;;1.40;;
22388;SDS011;11362;48.102;11.620;2024-02-04T02:14:54;1.80;;;1.30;;
22388;SDS011;11362;48.102;11.620;2024-02-04T02:17:25;4.33;;;1.60;;
22388;SDS011;11362;48.102;11.620;2024-02-04T02:20:05;1.57;;;1.47;;
22388;SDS011;11362;48.102;11.620;2024-02-04T02:22:49;2.30;;;1.60;;
22388;SDS011;11362;48.102;11.620;2024-02-04T02:25:22;2.60;;;1.43;;
22388;SDS011;11362;48.102;11.620;2024-02-04T02:27:48;4.27;;;1.30;;
22388;SDS011;11362;48.102;11.620;2024-02-04T02:30:14;2.20;;;1.70;;
22388;SDS011;11362;48.102;11.620;2024-02-04T02:32:40;2.57;;;1.20;;
22388;SDS011;11362;48.102;11.620;2024-02-04T02:35:06;1.87;;;1.53;;
22388;SDS011;11362;48.102;11.620;2024-02-04T02:43:03;4.87;;;1.83;;
22388;SDS011;11362;48.102;11.620;2024-02-04T02:45:29;2.83;;;1.50;;
22388;SDS011;11362;48.102;11.620;2024-02-04T02:47:55;3.13;;;1.40;;
22388;SDS011;11362;48.102;11.620;2024-02-04T02:50:21;3.17;;;1.40;;
22388;SDS011;11362;48.102;11.620;2024-02-04T02:52:47;1.50;;;1.40;;
22388;SDS011;11362;48.102;11.620;2024-02-04T02:55:12;1.47;;;1.23;;
22388;SDS011;11362;48.102;11.620;2024-02-04T02:57:37;1.70;;;1.60;;
22388;SDS011;11362;48.102;11.620;2024-02-04T03:00:03;1.30;;;1.20;;
22388;SDS011;11362;48.102;11.620;2024-02-04T03:02:28;2.67;;;1.47;;
22388;SDS011;11362;48.102;11.620;2024-02-04T03:04:54;4.60;;;1.30;;
22388;SDS011;11362;48.102;11.620;2024-02-04T03:07:19;4.07;;;1.67;;
22388;SDS011;11362;48.102;11.620;2024-02-04T03:09:44;5.87;;;1.23;;
22388;SDS011;11362;48.102;11.620;2024-02-04T03:12:10;1.30;;;1.20;;
22388;SDS011;11362;48.102;11.620;2024-02-04T03:14:35;1.47;;;1.20;;
22388;SDS011;11362;48.102;11.620;2024-02-04T03:17:00;2.07;;;1.07;;
22388;SDS011;11362;48.102;11.620;2024-02-04T03:19:26;3.63;;;1.40;;
22388;SDS011;11362;48.102;11.620;2024-02-04T03:21:51;2.83;;;1.20;;
22388;SDS011;11362;48.102;11.620;2024-02-04T03:24:16;1.90;;;1.40;;
22388;SDS011;11362;48.102;11.620;2024-02-04T03:26:42;1.23;;;1.13;;
22388;SDS011;11362;48.102;11.620;2024-02-04T03:29:07;1.73;;;1.27;;
22388;SDS011;11362;48.102;11.620;2024-02-04T03:31:33;1.40;;;1.30;;
22388;SDS011;11362;48.102;11.620;2024-02-04T03:33:58;2.70;;;1.47;;
22388;SDS011;11362;48.102;11.620;2024-02-04T03:36:24;2.77;;;1.30;;
22388;SDS011;11362;48.102;11.620;2024-02-04T03:38:52;1.73;;;1.13;;
22388;SDS011;11362;48.102;11.620;2024-02-04T03:41:17;1.03;;;1.00;;
22388;SDS011;11362;48.102;11.620;2024-02-04T03:43:43;4.17;;;1.10;;
22388;SDS011;11362;48.102;11.620;2024-02-04T03:46:08;1.03;;;1.00;;
22388;SDS011;11362;48.102;11.620;2024-02-04T03:48:38;1.07;;;0.97;;
22388;SDS011;11362;48.102;11.620;2024-02-04T03:51:03;1.63;;;1.07;;
22388;SDS011;11362;48.102;11.620;2024-02-04T03:53:28;1.80;;;1.07;;
22388;SDS011;11362;48.102;11.620;2024-02-04T03:55:53;1.73;;;1.23;;
22388;SDS011;11362;48.102;11.620;2024-02-04T03:58:19;1.20;;;1.00;;
22388;SDS011;11362;48.102;11.620;2024-02-04T04:00:45;0.77;;;0.77;;
22388;SDS011;11362;48.102;11.620;2024-02-04T04:03:10;2.23;;;1.00;;
22388;SDS011;11362;48.102;11.620;2024-02-04T04:05:36;1.40;;;1.30;;
22388;SDS011;11362;48.102;11.620;2024-02-04T04:08:01;1.33;;;1.07;;
22388;SDS011;11362;48.102;11.620;2024-02-04T04:10:26;2.57;;;1.17;;
22388;SDS011;11362;48.102;11.620;2024-02-04T04:12:51;0.90;;;0.90;;
22388;SDS011;11362;48.102;11.620;2024-02-04T04:15:17;2.43;;;1.40;;
22388;SDS011;11362;48.102;11.620;2024-02-04T04:17:42;2.33;;;0.90;;
22388;SDS011;11362;48.102;11.620;2024-02-04T04:20:07;1.23;;;1.00;;
22388;SDS011;11362;48.102;11.620;2024-02-04T04:22:33;2.70;;;1.17;;
22388;SDS011;11362;48.102;11.620;2024-02-04T04:24:58;1.53;;;0.97;;
22388;SDS011;11362;48.102;11.620;2024-02-04T04:27:23;1.57;;;0.90;;
22388;SDS011;11362;48.102;11.620;2024-02-04T04:29:49;1.20;;;1.10;;
22388;SDS011;11362;48.102;11.620;2024-02-04T04:32:14;3.93;;;1.20;;
22388;SDS011;11362;48.102;11.620;2024-02-04T04:34:39;1.77;;;0.90;;
22388;SDS011;11362;48.102;11.620;2024-02-04T04:37:05;3.00;;;1.50;;
22388;SDS011;11362;48.102;11.620;2024-02-04T04:39:30;1.27;;;1.17;;
22388;SDS011;11362;48.102;11.620;2024-02-04T04:41:56;1.67;;;1.10;;
22388;SDS011;11362;48.102;11.620;2024-02-04T04:44:21;2.93;;;1.27;;
22388;SDS011;11362;48.102;11.620;2024-02-04T04:46:47;3.83;;;1.07;;
22388;SDS011;11362;48.102;11.620;2024-02-04T04:49:12;1.73;;;0.80;;
22388;SDS011;11362;48.102;11.620;2024-02-04T04:51:37;1.20;;;0.93;;
22388;SDS011;11362;48.102;11.620;2024-02-04T04:54:03;2.33;;;1.00;;
22388;SDS011;11362;48.102;11.620;2024-02-04T04:56:28;1.63;;;0.83;;
22388;SDS011;11362;48.102;11.620;2024-02-04T04:58:53;1.23;;;0.97;;
22388;SDS011;11362;48.102;11.620;2024-02-04T05:01:18;1.90;;;0.90;;
22388;SDS011;11362;48.102;11.620;2024-02-04T05:03:44;2.73;;;1.10;;
22388;SDS011;11362;48.102;11.620;2024-02-04T05:06:09;1.70;;;0.90;;
22388;SDS011;11362;48.102;11.620;2024-02-04T05:08:34;1.10;;;0.90;;
22388;SDS011;11362;48.102;11.620;2024-02-04T05:11:00;0.73;;;0.73;;
22388;SDS011;11362;48.102;11.620;2024-02-04T05:13:25;1.37;;;0.80;;
22388;SDS011;11362;48.102;11.620;2024-02-04T05:15:50;1.57;;;0.97;;
22388;SDS011;11362;48.102;11.620;2024-02-04T05:18:15;1.37;;;1.10;;
22388;SDS011;11362;48.102;11.620;2024-02-04T05:20:41;2.03;;;0.90;;
22388;SDS011;11362;48.102;11.620;2024-02-04T05:23:06;1.77;;;0.80;;
22388;SDS011;11362;48.102;11.620;2024-02-04T05:25:31;1.03;;;0.87;;
22388;SDS011;11362;48.102;11.620;2024-02-04T05:27:57;3.10;;;0.90;;
22388;SDS011;11362;48.102;11.620;2024-02-04T05:30:22;1.47;;;0.80;;
22388;SDS011;11362;48.102;11.620;2024-02-04T05:32:47;2.30;;;0.93;;
22388;SDS011;11362;48.102;11.620;2024-02-04T05:35:13;0.80;;;0.80;;
22388;SDS011;11362;48.102;11.620;2024-02-04T05:37:38;1.37;;;0.77;;
22388;SDS011;11362;48.102;11.620;2024-02-04T05:40:03;0.73;;;0.70;;
22388;SDS011;11362;48.102;11.620;2024-02-04T05:42:29;2.43;;;1.00;;
22388;SDS011;11362;48.102;11.620;2024-02-04T05:44:54;0.73;;;0.70;;
22388;SDS011;11362;48.102;11.620;2024-02-04T05:47:20;1.20;;;1.03;;
22388;SDS011;11362;48.102;11.620;2024-02-04T05:49:45;0.70;;;0.70;;
22388;SDS011;11362;48.102;11.620;2024-02-04T05:52:11;0.70;;;0.70;;
22388;SDS011;11362;48.102;11.620;2024-02-04T05:54:37;1.07;;;0.80;;
22388;SDS011;11362;48.102;11.620;2024-02-04T05:57:03;1.43;;;0.90;;
22388;SDS011;11362;48.102;11.620;2024-02-04T05:59:29;0.87;;;0.70;;
22388;SDS011;11362;48.102;11.620;2024-02-04T06:01:54;0.90;;;0.90;;
22388;SDS011;11362;48.102;11.620;2024-02-04T06:04:19;0.60;;;0.60;;
22388;SDS011;11362;48.102;11.620;2024-02-04T06:06:45;1.63;;;1.00;;
22388;SDS011;11362;48.102;11.620;2024-02-04T06:09:11;0.70;;;0.70;;
22388;SDS011;11362;48.102;11.620;2024-02-04T06:11:36;1.63;;;0.70;;
22388;SDS011;11362;48.102;11.620;2024-02-04T06:14:01;0.77;;;0.73;;
22388;SDS011;11362;48.102;11.620;2024-02-04T06:16:26;3.03;;;0.73;;
22388;SDS011;11362;48.102;11.620;2024-02-04T06:18:52;0.93;;;0.80;;
22388;SDS011;11362;48.102;11.620;2024-02-04T06:21:17;1.10;;;0.97;;
22388;SDS011;11362;48.102;11.620;2024-02-04T06:23:43;0.90;;;0.90;;
22388;SDS011;11362;48.102;11.620;2024-02-04T06:26:08;1.03;;;0.73;;
22388;SDS011;11362;48.102;11.620;2024-02-04T06:28:33;1.27;;;0.90;;
22388;SDS011;11362;48.102;11.620;2024-02-04T06:30:59;1.93;;;0.70;;
22388;SDS011;11362;48.102;11.620;2024-02-04T06:33:25;0.60;;;0.60;;
22388;SDS011;11362;48.102;11.620;2024-02-04T06:35:50;0.90;;;0.70;;
22388;SDS011;11362;48.102;11.620;2024-02-04T06:38:15;0.77;;;0.77;;
22388;SDS011;11362;48.102;11.620;2024-02-04T06:40:41;0.97;;;0.70;;
22388;SDS011;11362;48.102;11.620;2024-02-04T06:43:06;1.00;;;0.70;;
22388;SDS011;11362;48.102;11.620;2024-02-04T06:45:31;0.70;;;0.67;;
22388;SDS011;11362;48.102;11.620;2024-02-04T06:47:57;7.20;;;1.10;;
22388;SDS011;11362;48.102;11.620;2024-02-04T06:50:22;2.23;;;1.20;;
22388;SDS011;11362;48.102;11.620;2024-02-04T06:52:47;3.13;;;0.80;;
22388;SDS011;11362;48.102;11.620;2024-02-04T06:55:13;3.63;;;1.27;;
22388;SDS011;11362;48.102;11.620;2024-02-04T06:57:38;7.23;;;1.40;;
22388;SDS011;11362;48.102;11.620;2024-02-04T07:00:04;8.00;;;1.77;;
22388;SDS011;11362;48.102;11.620;2024-02-04T07:02:30;3.77;;;1.40;;
22388;SDS011;11362;48.102;11.620;2024-02-04T07:04:55;8.80;;;1.80;;
22388;SDS011;11362;48.102;11.620;2024-02-04T07:07:20;12.03;;;1.30;;
22388;SDS011;11362;48.102;11.620;2024-02-04T07:09:46;11.00;;;1.50;;
22388;SDS011;11362;48.102;11.620;2024-02-04T07:12:11;12.00;;;1.83;;
22388;SDS011;11362;48.102;11.620;2024-02-04T07:14:37;16.77;;;2.87;;
22388;SDS011;11362;48.102;11.620;2024-02-04T07:17:02;13.80;;;2.77;;
22388;SDS011;11362;48.102;11.620;2024-02-04T07:19:28;11.63;;;2.50;;
22388;SDS011;11362;48.102;11.620;2024-02-04T07:21:54;11.83;;;3.57;;
22388;SDS011;11362;48.102;11.620;2024-02-04T07:24:19;15.40;;;5.07;;
22388;SDS011;11362;48.102;11.620;2024-02-04T07:26:45;12.83;;;5.80;;
22388;SDS011;11362;48.102;11.620;2024-02-04T07:29:12;8.63;;;5.27;;
22388;SDS011;11362;48.102;11.620;2024-02-04T07:31:37;13.77;;;4.37;;
22388;SDS011;11362;48.102;11.620;2024-02-04T07:34:03;13.10;;;4.73;;
22388;SDS011;11362;48.102;11.620;2024-02-04T07:36:29;11.53;;;4.93;;
22388;SDS011;11362;48.102;11.620;2024-02-04T07:38:55;16.90;;;4.33;;
22388;SDS011;11362;48.102;11.620;2024-02-04T07:41:20;13.53;;;4.87;;
22388;SDS011;11362;48.102;11.620;2024-02-04T07:43:46;16.17;;;4.23;;
22388;SDS011;11362;48.102;11.620;2024-02-04T07:46:11;18.50;;;4.00;;
22388;SDS011;11362;48.102;11.620;2024-02-04T07:48:37;19.90;;;5.03;;
22388;SDS011;11362;48.102;11.620;2024-02-04T07:51:02;13.87;;;3.53;;
22388;SDS011;11362;48.102;11.620;2024-02-04T07:53:28;18.67;;;5.13;;
22388;SDS011;11362;48.102;11.620;2024-02-04T07:55:53;11.57;;;3.40;;
22388;SDS011;11362;48.102;11.620;2024-02-04T07:58:19;13.10;;;3.63;;
22388;SDS011;11362;48.102;11.620;2024-02-04T08:00:44;11.67;;;3.13;;
22388;SDS011;11362;48.102;11.620;2024-02-04T08:03:10;11.27;;;3.33;;
22388;SDS011;11362;48.102;11.620;2024-02-04T08:05:35;17.73;;;3.83;;
22388;SDS011;11362;48.102;11.620;2024-02-04T08:08:01;13.07;;;2.87;;
22388;SDS011;11362;48.102;11.620;2024-02-04T08:10:26;7.93;;;3.13;;
22388;SDS011;11362;48.102;11.620;2024-02-04T08:12:52;13.27;;;2.60;;
22388;SDS011;11362;48.102;11.620;2024-02-04T08:15:18;10.27;;;2.60;;
22388;SDS011;11362;48.102;11.620;2024-02-04T08:17:43;12.63;;;2.60;;
22388;SDS011;11362;48.102;11.620;2024-02-04T08:20:09;17.73;;;4.37;;
22388;SDS011;11362;48.102;11.620;2024-02-04T08:22:35;19.47;;;3.37;;
22388;SDS011;11362;48.102;11.620;2024-02-04T08:25:01;17.20;;;3.53;;
22388;SDS011;11362;48.102;11.620;2024-02-04T08:27:26;19.97;;;3.77;;
22388;SDS011;11362;48.102;11.620;2024-02-04T08:29:52;17.93;;;4.30;;
22388;SDS011;11362;48.102;11.620;2024-02-04T08:32:17;18.47;;;3.70;;
22388;SDS011;11362;48.102;11.620;2024-02-04T08:34:43;32.33;;;4.30;;
22388;SDS011;11362;48.102;11.620;2024-02-04T08:37:08;22.20;;;4.87;;
22388;SDS011;11362;48.102;11.620;2024-02-04T08:39:34;23.83;;;4.60;;
22388;SDS011;11362;48.102;11.620;2024-02-04T08:41:59;20.73;;;4.40;;
22388;SDS011;11362;48.102;11.620;2024-02-04T08:44:25;29.10;;;4.47;;
22388;SDS011;11362;48.102;11.620;2024-02-04T08:46:50;30.27;;;4.10;;
22388;SDS011;11362;48.102;11.620;2024-02-04T08:49:16;26.43;;;4.00;;
22388;SDS011;11362;48.102;11.620;2024-02-04T08:51:41;25.13;;;4.07;;
22388;SDS011;11362;48.102;11.620;2024-02-04T08:54:07;24.43;;;4.40;;
22388;SDS011;11362;48.102;11.620;2024-02-04T08:56:32;29.97;;;4.47;;
22388;SDS011;11362;48.102;11.620;2024-02-04T08:58:58;26.77;;;5.17;;
22388;SDS011;11362;48.102;11.620;2024-02-04T09:01:23;28.37;;;4.90;;
22388;SDS011;11362;48.102;11.620;2024-02-04T09:03:48;26.47;;;4.97;;
22388;SDS011;11362;48.102;11.620;2024-02-04T09:06:14;24.37;;;4.77;;
22388;SDS011;11362;48.102;11.620;2024-02-04T09:08:39;35.73;;;5.80;;
22388;SDS011;11362;48.102;11.620;2024-02-04T09:11:05;27.37;;;5.30;;
22388;SDS011;11362;48.102;11.620;2024-02-04T09:13:30;36.73;;;5.80;;
22388;SDS011;11362;48.102;11.620;2024-02-04T09:15:55;35.80;;;5.37;;
22388;SDS011;11362;48.102;11.620;2024-02-04T09:18:20;28.17;;;5.03;;
22388;SDS011;11362;48.102;11.620;2024-02-04T09:20:46;34.67;;;5.60;;
22388;SDS011;11362;48.102;11.620;2024-02-04T09:23:12;26.23;;;5.10;;
22388;SDS011;11362;48.102;11.620;2024-02-04T09:25:37;23.90;;;4.10;;
22388;SDS011;11362;48.102;11.620;2024-02-04T09:28:03;18.13;;;4.90;;
22388;SDS011;11362;48.102;11.620;2024-02-04T09:30:29;22.47;;;4.47;;
22388;SDS011;11362;48.102;11.620;2024-02-04T09:32:55;31.03;;;4.20;;
22388;SDS011;11362;48.102;11.620;2024-02-04T09:35:20;37.90;;;4.77;;
22388;SDS011;11362;48.102;11.620;2024-02-04T09:37:46;25.90;;;4.37;;
22388;SDS011;11362;48.102;11.620;2024-02-04T09:40:11;23.57;;;4.23;;
22388;SDS011;11362;48.102;11.620;2024-02-04T09:42:37;24.77;;;4.83;;
22388;SDS011;11362;48.102;11.620;2024-02-04T09:45:03;26.53;;;4.50;;
22388;SDS011;11362;48.102;11.620;2024-02-04T09:47:29;16.53;;;4.33;;
22388;SDS011;11362;48.102;11.620;2024-02-04T09:49:57;22.87;;;3.57;;
22388;SDS011;11362;48.102;11.620;2024-02-04T09:52:25;18.40;;;4.43;;
22388;SDS011;11362;48.102;11.620;2024-02-04T09:55:02;17.00;;;3.63;;
22388;SDS011;11362;48.102;11.620;2024-02-04T09:57:28;13.33;;;3.97;;
22388;SDS011;11362;48.102;11.620;2024-02-04T09:59:54;23.97;;;4.80;;
22388;SDS011;11362;48.102;11.620;2024-02-04T10:02:20;17.37;;;4.60;;
22388;SDS011;11362;48.102;11.620;2024-02-04T10:04:45;23.20;;;4.30;;
22388;SDS011;11362;48.102;11.620;2024-02-04T10:07:11;21.93;;;4.40;;
22388;SDS011;11362;48.102;11.620;2024-02-04T10:09:37;22.83;;;5.13;;
22388;SDS011;11362;48.102;11.620;2024-02-04T10:12:02;19.43;;;4.23;;
22388;SDS011;11362;48.102;11.620;2024-02-04T10:14:28;23.73;;;4.47;;
22388;SDS011;11362;48.102;11.620;2024-02-04T10:16:54;18.27;;;4.13;;
22388;SDS011;11362;48.102;11.620;2024-02-04T10:19:19;22.37;;;4.33;;
22388;SDS011;11362;48.102;11.620;2024-02-04T10:21:44;27.27;;;4.40;;
22388;SDS011;11362;48.102;11.620;2024-02-04T10:24:10;23.93;;;4.50;;
22388;SDS011;11362;48.102;11.620;2024-02-04T10:26:35;16.47;;;4.47;;
22388;SDS011;11362;48.102;11.620;2024-02-04T10:29:01;28.03;;;5.07;;
22388;SDS011;11362;48.102;11.620;2024-02-04T10:31:26;21.77;;;4.37;;
22388;SDS011;11362;48.102;11.620;2024-02-04T10:33:52;18.93;;;4.77;;
22388;SDS011;11362;48.102;11.620;2024-02-04T10:36:18;14.23;;;3.90;;
22388;SDS011;11362;48.102;11.620;2024-02-04T10:38:43;25.33;;;4.53;;
22388;SDS011;11362;48.102;11.620;2024-02-04T10:41:10;23.00;;;4.50;;
22388;SDS011;11362;48.102;11.620;2024-02-04T10:43:40;19.50;;;4.70;;
22388;SDS011;11362;48.102;11.620;2024-02-04T10:46:20;25.00;;;5.90;;
22388;SDS011;11362;48.102;11.620;2024-02-04T10:48:50;17.17;;;4.63;;
22388;SDS011;11362;48.102;11.620;2024-02-04T10:51:21;26.30;;;6.73;;
22388;SDS011;11362;48.102;11.620;2024-02-04T10:53:50;67.53;;;17.77;;
22388;SDS011;11362;48.102;11.620;2024-02-04T10:56:25;44.03;;;10.43;;
22388;SDS011;11362;48.102;11.620;2024-02-04T10:58:54;35.70;;;10.90;;
22388;SDS011;11362;48.102;11.620;2024-02-04T11:01:21;33.83;;;8.60;;
22388;SDS011;11362;48.102;11.620;2024-02-04T11:03:47;29.23;;;7.97;;
22388;SDS011;11362;48.102;11.620;2024-02-04T11:06:14;30.40;;;8.77;;
22388;SDS011;11362;48.102;11.620;2024-02-04T11:08:39;23.77;;;7.60;;
22388;SDS011;11362;48.102;11.620;2024-02-04T11:11:06;33.43;;;8.07;;
22388;SDS011;11362;48.102;11.620;2024-02-04T11:13:31;25.60;;;7.10;;
22388;SDS011;11362;48.102;11.620;2024-02-04T11:15:57;19.97;;;6.27;;
22388;SDS011;11362;48.102;11.620;2024-02-04T11:21:23;21.47;;;5.70;;
22388;SDS011;11362;48.102;11.620;2024-02-04T11:27:15;23.37;;;6.17;;
22388;SDS011;11362;48.102;11.620;2024-02-04T11:29:41;21.50;;;5.93;;
22388;SDS011;11362;48.102;11.620;2024-02-04T11:32:06;26.13;;;6.33;;
22388;SDS011;11362;48.102;11.620;2024-02-04T11:34:32;27.73;;;5.40;;
22388;SDS011;11362;48.102;11.620;2024-02-04T11:36:58;14.47;;;4.60;;
22388;SDS011;11362;48.102;11.620;2024-02-04T11:39:23;25.30;;;5.80;;
22388;SDS011;11362;48.102;11.620;2024-02-04T11:41:49;17.70;;;5.57;;
22388;SDS011;11362;48.102;11.620;2024-02-04T11:44:21;16.10;;;5.27;;
22388;SDS011;11362;48.102;11.620;2024-02-04T11:46:51;17.90;;;5.20;;
22388;SDS011;11362;48.102;11.620;2024-02-04T11:49:17;17.70;;;5.10;;
22388;SDS011;11362;48.102;11.620;2024-02-04T11:51:46;19.57;;;5.67;;
22388;SDS011;11362;48.102;11.620;2024-02-04T11:54:12;13.80;;;4.27;;
22388;SDS011;11362;48.102;11.620;2024-02-04T11:56:37;14.80;;;4.43;;
22388;SDS011;11362;48.102;11.620;2024-02-04T11:59:03;15.57;;;4.67;;
22388;SDS011;11362;48.102;11.620;2024-02-04T12:01:31;17.80;;;4.80;;
22388;SDS011;11362;48.102;11.620;2024-02-04T12:03:56;17.00;;;4.13;;
22388;SDS011;11362;48.102;11.620;2024-02-04T12:06:22;15.47;;;4.57;;
22388;SDS011;11362;48.102;11.620;2024-02-04T12:08:47;16.17;;;3.77;;
22388;SDS011;11362;48.102;11.620;2024-02-04T12:11:13;16.83;;;4.73;;
22388;SDS011;11362;48.102;11.620;2024-02-04T12:13:39;15.67;;;4.10;;
22388;SDS011;11362;48.102;11.620;2024-02-04T12:16:06;24.83;;;4.43;;
22388;SDS011;11362;48.102;11.620;2024-02-04T12:18:31;23.97;;;5.00;;
22388;SDS011;11362;48.102;11.620;2024-02-04T12:20:57;11.77;;;4.50;;
22388;SDS011;11362;48.102;11.620;2024-02-04T12:23:22;15.63;;;4.60;;
22388;SDS011;11362;48.102;11.620;2024-02-04T12:25:48;17.33;;;4.07;;
22388;SDS011;11362;48.102;11.620;2024-02-04T12:28:13;28.27;;;4.67;;
22388;SDS011;11362;48.102;11.620;2024-02-04T12:30:39;17.00;;;3.47;;
22388;SDS011;11362;48.102;11.620;2024-02-04T12:33:05;8.87;;;3.60;;
22388;SDS011;11362;48.102;11.620;2024-02-04T12:35:31;18.57;;;4.67;;
22388;SDS011;11362;48.102;11.620;2024-02-04T12:37:57;13.37;;;3.97;;
22388;SDS011;11362;48.102;11.620;2024-02-04T12:40:24;16.47;;;4.90;;
22388;SDS011;11362;48.102;11.620;2024-02-04T12:45:19;17.27;;;4.27;;
22388;SDS011;11362;48.102;11.620;2024-02-04T12:47:48;12.57;;;3.83;;
22388;SDS011;11362;48.102;11.620;2024-02-04T12:50:14;18.17;;;4.17;;
22388;SDS011;11362;48.102;11.620;2024-02-04T12:52:40;23.50;;;4.13;;
22388;SDS011;11362;48.102;11.620;2024-02-04T12:55:05;16.07;;;4.10;;
22388;SDS011;11362;48.102;11.620;2024-02-04T12:57:31;23.27;;;4.80;;
22388;SDS011;11362;48.102;11.620;2024-02-04T13:00:06;16.47;;;4.37;;
22388;SDS011;11362;48.102;11.620;2024-02-04T13:02:31;22.20;;;4.63;;
22388;SDS011;11362;48.102;11.620;2024-02-04T13:04:57;23.80;;;5.07;;
22388;SDS011;11362;48.102;11.620;2024-02-04T13:07:22;23.03;;;5.07;;
22388;SDS011;11362;48.102;11.620;2024-02-04T13:09:57;14.30;;;4.17;;
22388;SDS011;11362;48.102;11.620;2024-02-04T13:12:26;15.50;;;3.73;;
22388;SDS011;11362;48.102;11.620;2024-02-04T13:14:51;22.00;;;4.83;;
22388;SDS011;11362;48.102;11.620;2024-02-04T13:17:16;18.23;;;3.63;;
22388;SDS011;11362;48.102;11.620;2024-02-04T13:19:42;32.77;;;4.53;;
22388;SDS011;11362;48.102;11.620;2024-02-04T13:22:07;21.80;;;4.77;;
22388;SDS011;11362;48.102;11.620;2024-02-04T13:24:33;11.03;;;3.50;;
22388;SDS011;11362;48.102;11.620;2024-02-04T13:26:58;18.37;;;3.83;;
22388;SDS011;11362;48.102;11.620;2024-02-04T13:29:24;21.27;;;4.43;;
22388;SDS011;11362;48.102;11.620;2024-02-04T13:31:50;19.67;;;4.37;;
22388;SDS011;11362;48.102;11.620;2024-02-04T13:34:15;12.47;;;3.90;;
22388;SDS011;11362;48.102;11.620;2024-02-04T13:36:41;17.53;;;4.60;;
22388;SDS011;11362;48.102;11.620;2024-02-04T13:39:08;18.87;;;4.33;;
22388;SDS011;11362;48.102;11.620;2024-02-04T13:41:33;17.80;;;4.03;;
22388;SDS011;11362;48.102;11.620;2024-02-04T13:43:59;13.37;;;4.00;;
22388;SDS011;11362;48.102;11.620;2024-02-04T13:46:24;13.97;;;3.57;;
22388;SDS011;11362;48.102;11.620;2024-02-04T13:48:49;18.37;;;3.50;;
22388;SDS011;11362;48.102;11.620;2024-02-04T13:51:15;14.63;;;3.40;;
22388;SDS011;11362;48.102;11.620;2024-02-04T13:53:40;14.63;;;3.13;;
22388;SDS011;11362;48.102;11.620;2024-02-04T13:56:06;18.10;;;3.30;;
22388;SDS011;11362;48.102;11.620;2024-02-04T13:58:31;11.87;;;3.03;;
22388;SDS011;11362;48.102;11.620;2024-02-04T14:00:57;13.33;;;3.63;;
22388;SDS011;11362;48.102;11.620;2024-02-04T14:03:22;16.03;;;3.47;;
22388;SDS011;11362;48.102;11.620;2024-02-04T14:05:48;13.97;;;3.13;;
22388;SDS011;11362;48.102;11.620;2024-02-04T14:08:13;14.57;;;2.80;;
22388;SDS011;11362;48.102;11.620;2024-02-04T14:10:39;12.30;;;2.53;;
22388;SDS011;11362;48.102;11.620;2024-02-04T14:13:05;9.13;;;2.43;;
22388;SDS011;11362;48.102;11.620;2024-02-04T14:15:30;9.77;;;3.00;;
22388;SDS011;11362;48.102;11.620;2024-02-04T14:17:56;8.97;;;3.00;;
22388;SDS011;11362;48.102;11.620;2024-02-04T14:20:22;11.27;;;3.10;;
22388;SDS011;11362;48.102;11.620;2024-02-04T14:22:49;7.60;;;2.53;;
22388;SDS011;11362;48.102;11.620;2024-02-04T14:25:14;13.73;;;3.03;;
22388;SDS011;11362;48.102;11.620;2024-02-04T14:27:40;7.93;;;2.40;;
22388;SDS011;11362;48.102;11.620;2024-02-04T14:30:06;11.43;;;2.70;;
22388;SDS011;11362;48.102;11.620;2024-02-04T14:32:32;7.80;;;2.67;;
22388;SDS011;11362;48.102;11.620;2024-02-04T14:34:58;6.57;;;2.53;;